UOOO 090830Z 15002MPS CAVOK M21/M23 Q1008 R19/39//35 NOSIG RMK QFE740/0987
QNH:(hPa/inHg/mmHg)1008 / 29.77 / 756
QFE:(hPa/inHg/mmHg)987 / 29.14 / 740
Temperature-21
Dew Point-23
Visibility> 10000
WeatherCAVOK
Cloud Cover
Transition Height1200 m./4600 ft.
Transition LevelFL70
SQUAWK